Alder, MT

6:24 AM MST on December 25, 2014 (GMT -0700)
Varney Bridge | Change Station
CLOSE
Current Station
Personal Weather Station
Location: Ennis, MT
Elevation: 5328 ft
Nearby Weather Stations
Active Advisory: Winter Weather Advisory Active Notice: Record Report, Local Storm Report

Elev 5328 ft 45.23 °N, 111.76 °W | Updated 9 minutes ago

Overcast
Overcast
21.8 °F
Feels Like 5 °F
N
27.0
Wind Variable Wind from North
Gusts 39.0 mph

Today
High -- | Low -- °F
--% Chance of Precip.
Yesterday
High -- | Low -- °F
Precip. -- in
8:06 AM 4:50 PM
Waxing Crescent, 16% visible
Pressure 29.68 in
Visibility 10.0 miles
Clouds Few 1400 ft
Overcast 2400 ft
Windchill 5 °F
Dew Point 18 °F
Humidity 87%
Rainfall 0.00 in
Snow Depth Not available.
UV 0 out of 12
Pollen .10 out of 12
Air Quality Not available.
Flu Activity Not available.
METAR KDLN 251253Z AUTO 01014KT 10SM FEW014 OVC024 M04/M07 A2961 RMK AO2 SNE42 SLP050 P0000 T10441072

More Conditions Fewer Conditions

Pressure 29.68 in
Visibility 10.0 miles
Clouds Few 1400 ft
Overcast 2400 ft
Windchill 5 °F
Dew Point 18 °F
Humidity 87%
Rainfall 0.00 in
Snow Depth Not available.
UV 0 out of 12
Pollen .10 out of 12
Air Quality Not available.
Flu Activity Not available.
METAR KDLN 251253Z AUTO 01014KT 10SM FEW014 OVC024 M04/M07 A2961 RMK AO2 SNE42 SLP050 P0000 T10441072

More Conditions Fewer Conditions

10-Day Weather Forecast

Almanac

Astronomy

Dec. 25, 2014 Rise Set
Actual Time
Civil Twilight
Nautical Twilight
Astronomical Twilight
Moon
Length of Visible Light
Length of Day
Tomorrow will be .
, % of the Moon is Illuminated

Today's Extremes

State Highs State Lows

Community

WunderPhotos

Upload Photos

1,780,271 photos uploaded!

WunderBlogs® & News

Nearby

Air Quality

  Air Quality AQ Index Pollutant
Not available.

Snow Depth

Station Depth Elevation

Earthquake Activity

City Distance Mag. Time & Date
Minimum magnitude displayed is 2.5.

Coastal Water Temperatures

Place Temperature

Nearby Weather Stations